Brownwood, Texas
Current Conditions -  °F | °C
As of 5:15 PM on Thursday 27 Nov 2014 (Local Time) from KBWD Reporting Station
Clear Clear  
Wind Chill: 57°   Ceiling: Unl
Heat Index: 57°   Visibility: 10mi
Dew Point: 30°   Wind: 6mph
Humidity: 36%   Direction: 150°SSE
Pressure: 30.38"   Gusts: NA
Location:  31.73°N, 98.98°W
Report Text: KBWD 272315Z AUTO 15005KT 10SM CLR 14/M01 A3038 RMK AO2
Loading
Personal Weather Stations






























Interactive Weather Map New forecast layout! Learn more

10-Day Weather Forecast

Advertisements
Track Severe Weather on mobile